Ingelmunster, Belgium
Current Conditions -  °F | °C
As of 10:00 AM on Saturday 22 Nov 2014 (Local Time) from LFQQ Reporting Station
Clear Clear  
Wind Chill: 44°   Ceiling: Unl
Heat Index: 48°   Visibility: 4mi
Dew Point: 46°   Wind: 9mph
Humidity: 93%   Direction: 160°SSE
Pressure: 30"   Gusts: NA
Location:  50.92°N, 3.26°E
Report Text: LFQQ 220900Z 16008KT 7000 NSC 09/08 Q1016 NOSIG
Loading
Personal Weather Stations






























Interactive Weather Map New forecast layout! Learn more

10-Day Weather Forecast

Advertisements
Track Severe Weather on mobile